sensor_id;sensor_type;location;lat;lon;timestamp;temperature;humidity
51637;DHT22;37713;53.254;6.460;2023-06-14T00:00:51;15.80;94.60
51637;DHT22;37713;53.254;6.460;2023-06-14T00:03:18;15.80;95.10
51637;DHT22;37713;53.254;6.460;2023-06-14T00:05:48;15.80;95.40
51637;DHT22;37713;53.254;6.460;2023-06-14T00:08:14;15.70;95.70
51637;DHT22;37713;53.254;6.460;2023-06-14T00:10:40;15.70;96.10
51637;DHT22;37713;53.254;6.460;2023-06-14T00:13:08;15.70;96.30
51637;DHT22;37713;53.254;6.460;2023-06-14T00:15:35;15.70;97.00
51637;DHT22;37713;53.254;6.460;2023-06-14T00:18:01;15.60;97.20
51637;DHT22;37713;53.254;6.460;2023-06-14T00:20:28;15.60;97.40
51637;DHT22;37713;53.254;6.460;2023-06-14T00:22:55;15.50;97.90
51637;DHT22;37713;53.254;6.460;2023-06-14T00:25:23;15.50;98.50
51637;DHT22;37713;53.254;6.460;2023-06-14T00:27:50;15.50;98.80
51637;DHT22;37713;53.254;6.460;2023-06-14T00:30:16;15.40;99.60
51637;DHT22;37713;53.254;6.460;2023-06-14T00:32:42;15.40;99.70
51637;DHT22;37713;53.254;6.460;2023-06-14T00:35:09;15.40;99.90
51637;DHT22;37713;53.254;6.460;2023-06-14T00:37:35;15.40;99.90
51637;DHT22;37713;53.254;6.460;2023-06-14T00:40:01;15.30;99.90
51637;DHT22;37713;53.254;6.460;2023-06-14T00:42:28;15.30;99.90
51637;DHT22;37713;53.254;6.460;2023-06-14T00:44:54;15.30;99.90
51637;DHT22;37713;53.254;6.460;2023-06-14T00:47:20;15.30;99.90
51637;DHT22;37713;53.254;6.460;2023-06-14T00:49:47;15.30;99.90
51637;DHT22;37713;53.254;6.460;2023-06-14T00:52:17;15.30;99.90
51637;DHT22;37713;53.254;6.460;2023-06-14T00:54:43;15.30;99.90
51637;DHT22;37713;53.254;6.460;2023-06-14T00:57:09;15.20;99.90
51637;DHT22;37713;53.254;6.460;2023-06-14T00:59:44;15.20;99.90
51637;DHT22;37713;53.254;6.460;2023-06-14T01:02:10;15.20;99.90
51637;DHT22;37713;53.254;6.460;2023-06-14T01:04:36;15.10;99.90
51637;DHT22;37713;53.254;6.460;2023-06-14T01:07:10;15.10;99.90
51637;DHT22;37713;53.254;6.460;2023-06-14T01:12:19;15.10;99.90
51637;DHT22;37713;53.254;6.460;2023-06-14T01:14:47;15.10;99.90
51637;DHT22;37713;53.254;6.460;2023-06-14T01:17:14;15.10;99.90
51637;DHT22;37713;53.254;6.460;2023-06-14T01:19:43;15.00;99.90
51637;DHT22;37713;53.254;6.460;2023-06-14T01:22:09;15.00;99.90
51637;DHT22;37713;53.254;6.460;2023-06-14T01:24:36;15.00;99.90
51637;DHT22;37713;53.254;6.460;2023-06-14T01:27:02;15.00;99.90
51637;DHT22;37713;53.254;6.460;2023-06-14T01:29:29;15.00;99.90
51637;DHT22;37713;53.254;6.460;2023-06-14T01:31:59;14.80;99.90
51637;DHT22;37713;53.254;6.460;2023-06-14T01:34:26;15.00;99.90
51637;DHT22;37713;53.254;6.460;2023-06-14T01:36:52;15.00;99.90
51637;DHT22;37713;53.254;6.460;2023-06-14T01:39:21;14.90;99.90
51637;DHT22;37713;53.254;6.460;2023-06-14T01:41:48;14.90;99.90
51637;DHT22;37713;53.254;6.460;2023-06-14T01:44:16;14.90;99.90
51637;DHT22;37713;53.254;6.460;2023-06-14T01:46:43;14.90;99.90
51637;DHT22;37713;53.254;6.460;2023-06-14T01:49:10;14.90;99.90
51637;DHT22;37713;53.254;6.460;2023-06-14T01:51:36;14.80;99.90
51637;DHT22;37713;53.254;6.460;2023-06-14T01:54:02;14.80;99.90
51637;DHT22;37713;53.254;6.460;2023-06-14T01:56:27;14.80;99.90
51637;DHT22;37713;53.254;6.460;2023-06-14T01:58:53;14.80;99.90
51637;DHT22;37713;53.254;6.460;2023-06-14T02:01:19;14.80;99.90
51637;DHT22;37713;53.254;6.460;2023-06-14T02:03:47;14.80;99.90
51637;DHT22;37713;53.254;6.460;2023-06-14T02:06:14;14.70;99.90
51637;DHT22;37713;53.254;6.460;2023-06-14T02:08:41;14.70;99.90
51637;DHT22;37713;53.254;6.460;2023-06-14T02:11:08;14.70;99.90
51637;DHT22;37713;53.254;6.460;2023-06-14T02:13:34;14.70;99.90
51637;DHT22;37713;53.254;6.460;2023-06-14T02:16:00;14.60;99.90
51637;DHT22;37713;53.254;6.460;2023-06-14T02:18:26;14.60;99.90
51637;DHT22;37713;53.254;6.460;2023-06-14T02:20:52;14.60;99.90
51637;DHT22;37713;53.254;6.460;2023-06-14T02:23:18;14.60;99.90
51637;DHT22;37713;53.254;6.460;2023-06-14T02:25:44;14.60;99.90
51637;DHT22;37713;53.254;6.460;2023-06-14T02:28:11;14.60;99.90
51637;DHT22;37713;53.254;6.460;2023-06-14T02:30:37;14.50;99.90
51637;DHT22;37713;53.254;6.460;2023-06-14T02:33:03;14.50;99.90
51637;DHT22;37713;53.254;6.460;2023-06-14T02:35:30;14.40;99.90
51637;DHT22;37713;53.254;6.460;2023-06-14T02:37:56;14.40;99.90
51637;DHT22;37713;53.254;6.460;2023-06-14T02:40:22;14.40;99.90
51637;DHT22;37713;53.254;6.460;2023-06-14T02:42:49;14.30;99.90
51637;DHT22;37713;53.254;6.460;2023-06-14T02:45:15;14.30;99.90
51637;DHT22;37713;53.254;6.460;2023-06-14T02:47:41;14.30;99.90
51637;DHT22;37713;53.254;6.460;2023-06-14T02:50:07;14.30;99.90
51637;DHT22;37713;53.254;6.460;2023-06-14T02:52:34;14.30;99.90
51637;DHT22;37713;53.254;6.460;2023-06-14T02:54:59;14.30;99.90
51637;DHT22;37713;53.254;6.460;2023-06-14T02:57:25;14.30;99.90
51637;DHT22;37713;53.254;6.460;2023-06-14T02:59:51;14.20;99.90
51637;DHT22;37713;53.254;6.460;2023-06-14T03:02:18;14.20;99.90
51637;DHT22;37713;53.254;6.460;2023-06-14T03:04:44;14.20;99.90
51637;DHT22;37713;53.254;6.460;2023-06-14T03:07:12;14.10;99.90
51637;DHT22;37713;53.254;6.460;2023-06-14T03:09:39;14.20;99.90
51637;DHT22;37713;53.254;6.460;2023-06-14T03:12:06;14.10;99.90
51637;DHT22;37713;53.254;6.460;2023-06-14T03:14:33;14.10;99.90
51637;DHT22;37713;53.254;6.460;2023-06-14T03:16:58;14.10;99.90
51637;DHT22;37713;53.254;6.460;2023-06-14T03:19:25;14.10;99.90
51637;DHT22;37713;53.254;6.460;2023-06-14T03:21:52;14.00;99.90
51637;DHT22;37713;53.254;6.460;2023-06-14T03:24:19;14.00;99.90
51637;DHT22;37713;53.254;6.460;2023-06-14T03:26:45;14.00;99.90
51637;DHT22;37713;53.254;6.460;2023-06-14T03:29:11;14.00;99.90
51637;DHT22;37713;53.254;6.460;2023-06-14T03:31:59;14.00;99.90
51637;DHT22;37713;53.254;6.460;2023-06-14T03:34:25;14.00;99.90
51637;DHT22;37713;53.254;6.460;2023-06-14T03:36:51;14.00;99.90
51637;DHT22;37713;53.254;6.460;2023-06-14T03:39:17;14.00;99.90
51637;DHT22;37713;53.254;6.460;2023-06-14T03:41:43;14.00;99.90
51637;DHT22;37713;53.254;6.460;2023-06-14T03:44:08;14.00;99.90
51637;DHT22;37713;53.254;6.460;2023-06-14T03:46:34;14.00;99.90
51637;DHT22;37713;53.254;6.460;2023-06-14T03:49:00;14.00;99.90
51637;DHT22;37713;53.254;6.460;2023-06-14T03:51:26;14.00;99.90
51637;DHT22;37713;53.254;6.460;2023-06-14T03:53:51;14.00;99.90
51637;DHT22;37713;53.254;6.460;2023-06-14T03:56:17;14.00;99.90
51637;DHT22;37713;53.254;6.460;2023-06-14T03:58:43;14.00;99.90
51637;DHT22;37713;53.254;6.460;2023-06-14T04:01:09;14.00;99.90
51637;DHT22;37713;53.254;6.460;2023-06-14T04:03:35;14.00;99.90
51637;DHT22;37713;53.254;6.460;2023-06-14T04:06:01;14.00;99.90
51637;DHT22;37713;53.254;6.460;2023-06-14T04:08:26;14.00;99.90
51637;DHT22;37713;53.254;6.460;2023-06-14T04:10:52;14.10;99.90
51637;DHT22;37713;53.254;6.460;2023-06-14T04:13:18;14.10;99.90
51637;DHT22;37713;53.254;6.460;2023-06-14T04:15:44;14.10;99.90
51637;DHT22;37713;53.254;6.460;2023-06-14T04:18:12;14.10;99.90
51637;DHT22;37713;53.254;6.460;2023-06-14T04:20:38;14.10;99.90
51637;DHT22;37713;53.254;6.460;2023-06-14T04:23:16;14.20;99.90
51637;DHT22;37713;53.254;6.460;2023-06-14T04:25:43;14.20;99.90
51637;DHT22;37713;53.254;6.460;2023-06-14T04:28:13;14.20;99.90
51637;DHT22;37713;53.254;6.460;2023-06-14T04:30:41;14.20;99.90
51637;DHT22;37713;53.254;6.460;2023-06-14T04:33:07;14.20;99.90
51637;DHT22;37713;53.254;6.460;2023-06-14T04:35:36;14.20;99.90
51637;DHT22;37713;53.254;6.460;2023-06-14T04:38:03;14.30;99.90
51637;DHT22;37713;53.254;6.460;2023-06-14T04:40:36;14.30;99.90
51637;DHT22;37713;53.254;6.460;2023-06-14T04:43:08;14.30;99.90
51637;DHT22;37713;53.254;6.460;2023-06-14T04:45:38;14.30;99.90
51637;DHT22;37713;53.254;6.460;2023-06-14T04:48:05;14.40;99.90
51637;DHT22;37713;53.254;6.460;2023-06-14T04:50:32;14.40;99.90
51637;DHT22;37713;53.254;6.460;2023-06-14T04:52:59;14.40;99.90
51637;DHT22;37713;53.254;6.460;2023-06-14T04:55:25;14.40;99.90
51637;DHT22;37713;53.254;6.460;2023-06-14T04:57:52;14.50;99.90
51637;DHT22;37713;53.254;6.460;2023-06-14T05:00:22;14.50;99.90
51637;DHT22;37713;53.254;6.460;2023-06-14T05:02:48;14.60;99.90
51637;DHT22;37713;53.254;6.460;2023-06-14T05:05:16;14.60;99.90
51637;DHT22;37713;53.254;6.460;2023-06-14T05:07:42;14.70;99.90
51637;DHT22;37713;53.254;6.460;2023-06-14T05:10:09;14.70;99.90
51637;DHT22;37713;53.254;6.460;2023-06-14T05:12:39;14.80;99.90
51637;DHT22;37713;53.254;6.460;2023-06-14T05:15:05;14.80;99.90
51637;DHT22;37713;53.254;6.460;2023-06-14T05:17:31;14.90;99.90
51637;DHT22;37713;53.254;6.460;2023-06-14T05:19:57;14.90;99.90
51637;DHT22;37713;53.254;6.460;2023-06-14T05:22:22;15.00;99.90
51637;DHT22;37713;53.254;6.460;2023-06-14T05:24:48;15.10;99.90
51637;DHT22;37713;53.254;6.460;2023-06-14T05:27:14;15.20;99.90
51637;DHT22;37713;53.254;6.460;2023-06-14T05:29:40;15.30;99.90
51637;DHT22;37713;53.254;6.460;2023-06-14T05:32:06;15.30;99.90
51637;DHT22;37713;53.254;6.460;2023-06-14T05:34:32;15.40;99.90
51637;DHT22;37713;53.254;6.460;2023-06-14T05:36:58;15.50;99.90
51637;DHT22;37713;53.254;6.460;2023-06-14T05:39:24;15.50;99.90
51637;DHT22;37713;53.254;6.460;2023-06-14T05:41:50;15.60;99.90
51637;DHT22;37713;53.254;6.460;2023-06-14T05:44:16;15.70;99.90
51637;DHT22;37713;53.254;6.460;2023-06-14T05:46:42;15.80;99.90
51637;DHT22;37713;53.254;6.460;2023-06-14T05:49:07;15.80;99.90
51637;DHT22;37713;53.254;6.460;2023-06-14T05:51:34;15.90;99.90
51637;DHT22;37713;53.254;6.460;2023-06-14T05:54:00;16.00;99.90
51637;DHT22;37713;53.254;6.460;2023-06-14T05:56:26;16.10;99.90
51637;DHT22;37713;53.254;6.460;2023-06-14T05:58:52;16.20;99.90
51637;DHT22;37713;53.254;6.460;2023-06-14T06:01:18;16.30;99.90
51637;DHT22;37713;53.254;6.460;2023-06-14T06:03:44;16.40;99.90
51637;DHT22;37713;53.254;6.460;2023-06-14T06:06:12;16.50;99.90
51637;DHT22;37713;53.254;6.460;2023-06-14T06:08:38;16.70;99.90
51637;DHT22;37713;53.254;6.460;2023-06-14T06:11:04;16.80;99.90
51637;DHT22;37713;53.254;6.460;2023-06-14T06:13:30;16.90;99.90
51637;DHT22;37713;53.254;6.460;2023-06-14T06:15:55;17.10;99.90
51637;DHT22;37713;53.254;6.460;2023-06-14T06:18:21;17.20;99.90
51637;DHT22;37713;53.254;6.460;2023-06-14T06:20:47;17.40;99.90
51637;DHT22;37713;53.254;6.460;2023-06-14T06:23:13;17.50;99.90
51637;DHT22;37713;53.254;6.460;2023-06-14T06:25:39;17.80;99.90
51637;DHT22;37713;53.254;6.460;2023-06-14T06:28:06;18.30;99.90
51637;DHT22;37713;53.254;6.460;2023-06-14T06:30:32;19.50;99.90
51637;DHT22;37713;53.254;6.460;2023-06-14T06:32:58;21.10;99.90
51637;DHT22;37713;53.254;6.460;2023-06-14T06:35:24;22.50;99.90
51637;DHT22;37713;53.254;6.460;2023-06-14T06:37:49;23.60;99.90
51637;DHT22;37713;53.254;6.460;2023-06-14T06:40:15;24.50;99.90
51637;DHT22;37713;53.254;6.460;2023-06-14T06:42:41;25.30;99.90
51637;DHT22;37713;53.254;6.460;2023-06-14T06:45:07;26.00;99.90
51637;DHT22;37713;53.254;6.460;2023-06-14T06:47:33;26.60;99.90
51637;DHT22;37713;53.254;6.460;2023-06-14T06:49:59;27.20;99.90
51637;DHT22;37713;53.254;6.460;2023-06-14T06:52:24;27.60;99.90
51637;DHT22;37713;53.254;6.460;2023-06-14T06:54:50;28.00;99.30
51637;DHT22;37713;53.254;6.460;2023-06-14T06:57:20;28.30;98.10
51637;DHT22;37713;53.254;6.460;2023-06-14T06:59:48;28.30;96.40
51637;DHT22;37713;53.254;6.460;2023-06-14T07:02:14;28.90;97.00
51637;DHT22;37713;53.254;6.460;2023-06-14T07:04:40;29.20;95.50
51637;DHT22;37713;53.254;6.460;2023-06-14T07:07:06;29.40;93.90
51637;DHT22;37713;53.254;6.460;2023-06-14T07:09:32;29.50;93.20
51637;DHT22;37713;53.254;6.460;2023-06-14T07:11:58;29.70;92.20
51637;DHT22;37713;53.254;6.460;2023-06-14T07:14:24;29.80;91.80
51637;DHT22;37713;53.254;6.460;2023-06-14T07:16:49;30.10;91.40
51637;DHT22;37713;53.254;6.460;2023-06-14T07:19:15;30.40;91.00
51637;DHT22;37713;53.254;6.460;2023-06-14T07:21:41;30.50;90.40
51637;DHT22;37713;53.254;6.460;2023-06-14T07:24:07;30.70;87.70
51637;DHT22;37713;53.254;6.460;2023-06-14T07:26:33;30.90;85.30
51637;DHT22;37713;53.254;6.460;2023-06-14T07:28:59;30.80;84.20
51637;DHT22;37713;53.254;6.460;2023-06-14T07:31:25;31.00;83.30
51637;DHT22;37713;53.254;6.460;2023-06-14T07:33:52;30.90;82.50
51637;DHT22;37713;53.254;6.460;2023-06-14T07:36:17;31.00;81.20
51637;DHT22;37713;53.254;6.460;2023-06-14T07:38:43;30.80;80.90
51637;DHT22;37713;53.254;6.460;2023-06-14T07:41:10;30.80;80.10
51637;DHT22;37713;53.254;6.460;2023-06-14T07:43:36;30.90;79.70
51637;DHT22;37713;53.254;6.460;2023-06-14T07:46:01;30.90;79.20
51637;DHT22;37713;53.254;6.460;2023-06-14T07:48:28;30.90;78.60
51637;DHT22;37713;53.254;6.460;2023-06-14T07:50:53;30.90;77.80
51637;DHT22;37713;53.254;6.460;2023-06-14T07:53:19;30.90;77.30
51637;DHT22;37713;53.254;6.460;2023-06-14T07:55:45;30.90;76.90
51637;DHT22;37713;53.254;6.460;2023-06-14T07:58:13;30.90;76.20
51637;DHT22;37713;53.254;6.460;2023-06-14T08:00:38;31.00;76.60
51637;DHT22;37713;53.254;6.460;2023-06-14T08:03:04;31.10;75.80
51637;DHT22;37713;53.254;6.460;2023-06-14T08:05:30;30.90;75.20
51637;DHT22;37713;53.254;6.460;2023-06-14T08:07:56;30.70;74.00
51637;DHT22;37713;53.254;6.460;2023-06-14T08:10:22;30.60;74.20
51637;DHT22;37713;53.254;6.460;2023-06-14T08:12:48;30.70;74.20
51637;DHT22;37713;53.254;6.460;2023-06-14T08:15:16;30.60;73.80
51637;DHT22;37713;53.254;6.460;2023-06-14T08:17:45;30.60;73.70
51637;DHT22;37713;53.254;6.460;2023-06-14T08:20:11;30.50;74.10
51637;DHT22;37713;53.254;6.460;2023-06-14T08:22:37;30.40;73.30
51637;DHT22;37713;53.254;6.460;2023-06-14T08:25:04;30.40;74.80
51637;DHT22;37713;53.254;6.460;2023-06-14T08:27:30;30.40;73.90
51637;DHT22;37713;53.254;6.460;2023-06-14T08:29:56;30.40;73.10
51637;DHT22;37713;53.254;6.460;2023-06-14T08:32:22;30.20;72.70
51637;DHT22;37713;53.254;6.460;2023-06-14T08:34:48;30.00;73.00
51637;DHT22;37713;53.254;6.460;2023-06-14T08:37:14;30.10;73.30
51637;DHT22;37713;53.254;6.460;2023-06-14T08:39:39;30.00;73.70
51637;DHT22;37713;53.254;6.460;2023-06-14T08:42:07;30.00;74.00
51637;DHT22;37713;53.254;6.460;2023-06-14T08:44:33;29.80;73.50
51637;DHT22;37713;53.254;6.460;2023-06-14T08:47:00;29.60;74.00
51637;DHT22;37713;53.254;6.460;2023-06-14T08:49:29;29.40;73.60
51637;DHT22;37713;53.254;6.460;2023-06-14T08:52:01;29.20;72.50
51637;DHT22;37713;53.254;6.460;2023-06-14T08:54:30;28.90;72.80
51637;DHT22;37713;53.254;6.460;2023-06-14T08:56:57;28.60;73.60
51637;DHT22;37713;53.254;6.460;2023-06-14T08:59:27;28.40;74.00
51637;DHT22;37713;53.254;6.460;2023-06-14T09:01:53;28.30;74.40
51637;DHT22;37713;53.254;6.460;2023-06-14T09:04:23;28.20;74.00
51637;DHT22;37713;53.254;6.460;2023-06-14T09:06:50;28.10;75.30
51637;DHT22;37713;53.254;6.460;2023-06-14T09:09:22;27.90;75.50
51637;DHT22;37713;53.254;6.460;2023-06-14T09:11:51;27.80;74.60
51637;DHT22;37713;53.254;6.460;2023-06-14T09:14:23;27.40;75.00
51637;DHT22;37713;53.254;6.460;2023-06-14T09:16:52;27.30;74.70
51637;DHT22;37713;53.254;6.460;2023-06-14T09:19:22;27.00;74.60
51637;DHT22;37713;53.254;6.460;2023-06-14T09:21:50;26.70;76.70
51637;DHT22;37713;53.254;6.460;2023-06-14T09:24:18;26.60;76.30
51637;DHT22;37713;53.254;6.460;2023-06-14T09:26:47;26.50;76.80
51637;DHT22;37713;53.254;6.460;2023-06-14T09:29:13;26.40;77.10
51637;DHT22;37713;53.254;6.460;2023-06-14T09:31:39;26.30;76.50
51637;DHT22;37713;53.254;6.460;2023-06-14T09:34:05;26.20;76.40
51637;DHT22;37713;53.254;6.460;2023-06-14T09:36:32;26.20;76.70
51637;DHT22;37713;53.254;6.460;2023-06-14T09:38:59;26.00;77.50
51637;DHT22;37713;53.254;6.460;2023-06-14T09:41:39;26.00;78.00
51637;DHT22;37713;53.254;6.460;2023-06-14T09:44:09;26.10;77.50
51637;DHT22;37713;53.254;6.460;2023-06-14T09:46:36;26.00;77.70
51637;DHT22;37713;53.254;6.460;2023-06-14T09:49:03;26.00;78.20
51637;DHT22;37713;53.254;6.460;2023-06-14T09:51:30;26.10;78.50
51637;DHT22;37713;53.254;6.460;2023-06-14T09:54:01;26.10;79.00
51637;DHT22;37713;53.254;6.460;2023-06-14T09:56:41;26.00;78.60
51637;DHT22;37713;53.254;6.460;2023-06-14T09:59:10;26.00;78.40
51637;DHT22;37713;53.254;6.460;2023-06-14T10:01:42;26.00;79.30
51637;DHT22;37713;53.254;6.460;2023-06-14T10:04:11;26.10;79.40
51637;DHT22;37713;53.254;6.460;2023-06-14T10:06:45;26.10;79.70
51637;DHT22;37713;53.254;6.460;2023-06-14T10:09:11;26.10;79.70
51637;DHT22;37713;53.254;6.460;2023-06-14T10:11:38;26.10;80.20
51637;DHT22;37713;53.254;6.460;2023-06-14T10:14:10;26.10;79.20
51637;DHT22;37713;53.254;6.460;2023-06-14T10:19:32;26.20;79.40
51637;DHT22;37713;53.254;6.460;2023-06-14T10:22:12;26.10;78.00
51637;DHT22;37713;53.254;6.460;2023-06-14T10:24:43;26.10;78.90
51637;DHT22;37713;53.254;6.460;2023-06-14T10:27:12;26.00;79.60
51637;DHT22;37713;53.254;6.460;2023-06-14T10:32:26;26.10;76.50
51637;DHT22;37713;53.254;6.460;2023-06-14T10:35:04;26.00;76.80
51637;DHT22;37713;53.254;6.460;2023-06-14T10:37:30;26.00;77.90
51637;DHT22;37713;53.254;6.460;2023-06-14T10:39:56;26.00;77.40
51637;DHT22;37713;53.254;6.460;2023-06-14T10:42:23;26.00;77.90
51637;DHT22;37713;53.254;6.460;2023-06-14T10:44:57;25.90;76.80
51637;DHT22;37713;53.254;6.460;2023-06-14T10:47:36;25.90;76.80
51637;DHT22;37713;53.254;6.460;2023-06-14T10:50:09;26.00;79.10
51637;DHT22;37713;53.254;6.460;2023-06-14T10:52:43;26.10;78.30
51637;DHT22;37713;53.254;6.460;2023-06-14T10:55:11;26.20;79.40
51637;DHT22;37713;53.254;6.460;2023-06-14T10:57:42;26.20;77.80
51637;DHT22;37713;53.254;6.460;2023-06-14T11:00:10;26.30;78.10
51637;DHT22;37713;53.254;6.460;2023-06-14T11:05:55;26.30;76.80
51637;DHT22;37713;53.254;6.460;2023-06-14T11:11:15;26.20;77.30
51637;DHT22;37713;53.254;6.460;2023-06-14T11:13:44;26.20;77.60
51637;DHT22;37713;53.254;6.460;2023-06-14T11:16:15;26.20;77.50
51637;DHT22;37713;53.254;6.460;2023-06-14T11:18:42;26.30;76.30
51637;DHT22;37713;53.254;6.460;2023-06-14T11:21:08;26.20;76.70
51637;DHT22;37713;53.254;6.460;2023-06-14T11:23:37;26.30;75.80
51637;DHT22;37713;53.254;6.460;2023-06-14T11:26:03;26.30;76.90
51637;DHT22;37713;53.254;6.460;2023-06-14T11:28:37;26.40;76.50
51637;DHT22;37713;53.254;6.460;2023-06-14T11:31:04;26.40;77.80
51637;DHT22;37713;53.254;6.460;2023-06-14T11:33:30;26.40;77.10
51637;DHT22;37713;53.254;6.460;2023-06-14T11:35:56;26.40;76.10
51637;DHT22;37713;53.254;6.460;2023-06-14T11:38:21;26.40;76.30
51637;DHT22;37713;53.254;6.460;2023-06-14T11:40:47;26.40;76.10
51637;DHT22;37713;53.254;6.460;2023-06-14T11:43:13;26.50;76.20
51637;DHT22;37713;53.254;6.460;2023-06-14T11:45:39;26.50;75.60
51637;DHT22;37713;53.254;6.460;2023-06-14T11:48:06;26.40;76.50
51637;DHT22;37713;53.254;6.460;2023-06-14T11:50:32;26.40;76.60
51637;DHT22;37713;53.254;6.460;2023-06-14T11:53:00;26.40;77.00
51637;DHT22;37713;53.254;6.460;2023-06-14T11:55:35;26.40;76.20
51637;DHT22;37713;53.254;6.460;2023-06-14T11:58:01;26.40;76.30
51637;DHT22;37713;53.254;6.460;2023-06-14T12:00:28;26.40;75.60
51637;DHT22;37713;53.254;6.460;2023-06-14T12:02:55;26.30;74.80
51637;DHT22;37713;53.254;6.460;2023-06-14T12:05:22;26.40;75.70
51637;DHT22;37713;53.254;6.460;2023-06-14T12:07:48;26.40;75.60
51637;DHT22;37713;53.254;6.460;2023-06-14T12:10:14;26.50;75.50
51637;DHT22;37713;53.254;6.460;2023-06-14T12:12:40;26.60;76.50
51637;DHT22;37713;53.254;6.460;2023-06-14T12:15:08;26.80;77.40
51637;DHT22;37713;53.254;6.460;2023-06-14T12:17:37;26.90;77.60
51637;DHT22;37713;53.254;6.460;2023-06-14T12:20:10;26.80;76.10
51637;DHT22;37713;53.254;6.460;2023-06-14T12:22:37;26.80;75.50
51637;DHT22;37713;53.254;6.460;2023-06-14T12:25:04;26.70;75.70
51637;DHT22;37713;53.254;6.460;2023-06-14T12:27:31;26.70;76.10
51637;DHT22;37713;53.254;6.460;2023-06-14T12:30:01;26.50;74.90
51637;DHT22;37713;53.254;6.460;2023-06-14T12:32:28;26.60;75.50
51637;DHT22;37713;53.254;6.460;2023-06-14T12:34:54;26.60;76.30
51637;DHT22;37713;53.254;6.460;2023-06-14T12:37:20;26.70;76.30
51637;DHT22;37713;53.254;6.460;2023-06-14T12:39:46;26.70;76.70
51637;DHT22;37713;53.254;6.460;2023-06-14T12:42:11;26.70;76.90
51637;DHT22;37713;53.254;6.460;2023-06-14T12:44:40;26.60;76.30
51637;DHT22;37713;53.254;6.460;2023-06-14T12:47:07;26.60;76.60
51637;DHT22;37713;53.254;6.460;2023-06-14T12:49:33;26.60;76.50
51637;DHT22;37713;53.254;6.460;2023-06-14T12:51:58;26.80;76.80
51637;DHT22;37713;53.254;6.460;2023-06-14T12:54:25;26.80;76.50
51637;DHT22;37713;53.254;6.460;2023-06-14T12:56:53;26.80;76.40
51637;DHT22;37713;53.254;6.460;2023-06-14T12:59:20;26.90;75.60
51637;DHT22;37713;53.254;6.460;2023-06-14T13:01:46;27.10;76.00
51637;DHT22;37713;53.254;6.460;2023-06-14T13:04:15;27.10;75.20
51637;DHT22;37713;53.254;6.460;2023-06-14T13:06:41;27.10;75.20
51637;DHT22;37713;53.254;6.460;2023-06-14T13:09:06;27.10;74.60
51637;DHT22;37713;53.254;6.460;2023-06-14T13:11:33;27.00;73.60
51637;DHT22;37713;53.254;6.460;2023-06-14T13:13:59;27.00;73.60
51637;DHT22;37713;53.254;6.460;2023-06-14T13:16:27;27.00;73.40
51637;DHT22;37713;53.254;6.460;2023-06-14T13:18:53;26.90;73.80
51637;DHT22;37713;53.254;6.460;2023-06-14T13:21:18;26.80;74.60
51637;DHT22;37713;53.254;6.460;2023-06-14T13:23:44;26.70;74.40
51637;DHT22;37713;53.254;6.460;2023-06-14T13:26:10;26.70;73.80
51637;DHT22;37713;53.254;6.460;2023-06-14T13:28:36;26.80;74.60
51637;DHT22;37713;53.254;6.460;2023-06-14T13:31:01;26.80;75.20
51637;DHT22;37713;53.254;6.460;2023-06-14T13:33:27;26.80;74.90
51637;DHT22;37713;53.254;6.460;2023-06-14T13:35:53;27.00;75.00
51637;DHT22;37713;53.254;6.460;2023-06-14T13:38:19;27.10;73.70
51637;DHT22;37713;53.254;6.460;2023-06-14T13:40:45;27.20;75.00
51637;DHT22;37713;53.254;6.460;2023-06-14T13:43:11;27.40;74.80
51637;DHT22;37713;53.254;6.460;2023-06-14T13:45:37;27.50;73.20
51637;DHT22;37713;53.254;6.460;2023-06-14T13:48:03;27.60;72.90
51637;DHT22;37713;53.254;6.460;2023-06-14T13:50:29;27.70;72.70
51637;DHT22;37713;53.254;6.460;2023-06-14T13:52:57;27.80;73.60
51637;DHT22;37713;53.254;6.460;2023-06-14T13:55:23;27.80;72.90
51637;DHT22;37713;53.254;6.460;2023-06-14T13:57:49;27.80;72.60
51637;DHT22;37713;53.254;6.460;2023-06-14T14:00:15;27.90;73.40
51637;DHT22;37713;53.254;6.460;2023-06-14T14:02:41;27.80;73.40
51637;DHT22;37713;53.254;6.460;2023-06-14T14:05:07;27.70;73.20
51637;DHT22;37713;53.254;6.460;2023-06-14T14:07:33;27.70;73.20
51637;DHT22;37713;53.254;6.460;2023-06-14T14:10:00;27.70;71.70
51637;DHT22;37713;53.254;6.460;2023-06-14T14:12:25;27.80;72.70
51637;DHT22;37713;53.254;6.460;2023-06-14T14:14:51;27.60;72.50
51637;DHT22;37713;53.254;6.460;2023-06-14T14:17:17;27.40;71.30
51637;DHT22;37713;53.254;6.460;2023-06-14T14:19:43;27.20;72.10
51637;DHT22;37713;53.254;6.460;2023-06-14T14:22:09;27.10;73.40
51637;DHT22;37713;53.254;6.460;2023-06-14T14:24:35;26.80;73.50
51637;DHT22;37713;53.254;6.460;2023-06-14T14:27:01;26.80;73.40
51637;DHT22;37713;53.254;6.460;2023-06-14T14:29:27;27.00;74.20
51637;DHT22;37713;53.254;6.460;2023-06-14T14:31:56;27.20;72.40
51637;DHT22;37713;53.254;6.460;2023-06-14T14:34:23;27.50;72.80
51637;DHT22;37713;53.254;6.460;2023-06-14T14:36:49;27.70;73.40
51637;DHT22;37713;53.254;6.460;2023-06-14T14:39:15;27.60;72.70
51637;DHT22;37713;53.254;6.460;2023-06-14T14:41:41;27.40;71.60
51637;DHT22;37713;53.254;6.460;2023-06-14T14:44:06;27.10;70.90
51637;DHT22;37713;53.254;6.460;2023-06-14T14:46:32;27.00;72.00
51637;DHT22;37713;53.254;6.460;2023-06-14T14:48:59;26.90;71.50
51637;DHT22;37713;53.254;6.460;2023-06-14T14:51:25;26.90;72.50
51637;DHT22;37713;53.254;6.460;2023-06-14T14:53:51;26.80;72.20
51637;DHT22;37713;53.254;6.460;2023-06-14T14:56:17;26.60;71.40
51637;DHT22;37713;53.254;6.460;2023-06-14T14:58:43;26.70;71.20
51637;DHT22;37713;53.254;6.460;2023-06-14T15:01:09;26.70;71.30
51637;DHT22;37713;53.254;6.460;2023-06-14T15:03:36;26.50;71.50
51637;DHT22;37713;53.254;6.460;2023-06-14T15:06:01;26.60;72.10
51637;DHT22;37713;53.254;6.460;2023-06-14T15:08:27;26.70;73.80
51637;DHT22;37713;53.254;6.460;2023-06-14T15:10:53;26.70;77.10
51637;DHT22;37713;53.254;6.460;2023-06-14T15:13:18;26.60;79.00
51637;DHT22;37713;53.254;6.460;2023-06-14T15:15:45;26.50;80.10
51637;DHT22;37713;53.254;6.460;2023-06-14T15:18:11;26.40;81.30
51637;DHT22;37713;53.254;6.460;2023-06-14T15:20:36;26.30;81.80
51637;DHT22;37713;53.254;6.460;2023-06-14T15:23:02;26.00;81.70
51637;DHT22;37713;53.254;6.460;2023-06-14T15:25:29;25.70;82.40
51637;DHT22;37713;53.254;6.460;2023-06-14T15:27:55;25.40;83.20
51637;DHT22;37713;53.254;6.460;2023-06-14T15:30:22;25.40;84.30
51637;DHT22;37713;53.254;6.460;2023-06-14T15:32:48;25.40;83.50
51637;DHT22;37713;53.254;6.460;2023-06-14T15:35:16;25.40;83.60
51637;DHT22;37713;53.254;6.460;2023-06-14T15:37:43;25.50;84.40
51637;DHT22;37713;53.254;6.460;2023-06-14T15:40:09;25.70;85.20
51637;DHT22;37713;53.254;6.460;2023-06-14T15:42:35;25.90;85.40